Terminal Aerodrome Forecast
Issued by NWS Tampa Bay Area, FL

Home | Current Version | Previous Version | Text Only | Print | Product List | Glossary On
Versions: 1 2 3 4 5 6 7 8 9 10 11 12 13 14 15 16 17 18 19 20 21 22 23 24 25
000
FTUS42 KTBW 161500 AAA
TAFTPA
TAF AMD
KTPA 161501Z 1615/1712 25005KT P6SM FEW030 SCT120 BKN250
     FM161700 26005KT P6SM VCSH SCT050 BKN120
     FM161900 26008KT P6SM VCTS BKN035CB
     FM170400 25005KT P6SM VCSH BKN060=

USA.gov is the U.S. government's official web portal to all federal, state and local government web resources and services.